Terminal Aerodrome Forecast
Issued by NWS Indianapolis, IN

Home | Current Version | Previous Version | Text Only | Print | Product List | Glossary On
Versions: 1 2 3 4 5 6 7 8 9 10 11 12 13 14 15 16 17 18 19 20 21 22 23 24 25 26 27 28
000
FTUS43 KIND 312019 AAB
TAFIND
TAF AMD
KIND 312019Z 3120/0124 34011KT P6SM SCT030 BKN180
     FM312200 33011KT P6SM VCTS SCT030CB BKN180
     FM010100 36007KT P6SM SCT060
     FM010400 01006KT P6SM SCT250
     FM010800 01006KT 4SM BR SKC=

USA.gov is the U.S. government's official web portal to all federal, state and local government web resources and services.